Time;durP1;ratioP1;P1;durP2;ratioP2;P2;SDS_P1;SDS_P2;PMS_P1;PMS_P2;Temp;Humidity;BMP_temperature;BMP_pressure;BME280_temperature;BME280_humidity;BME280_pressure;Samples;Min_cycle;Max_cycle;Signal;HPM_P1;HPM_P2
2023/03/07 00:01:04;;;;;;;14.00;7.93;;;;;;;;;;6301464;28;20155;-76
2023/03/07 00:04:06;;;;;;;13.50;8.05;;;;;;;;;;6301050;28;20060;-76
2023/03/07 00:11:07;;;;;;;11.52;7.13;;;;;;;;;;6297734;28;20041;-75
2023/03/07 00:14:09;;;;;;;;;;;;;;;;;;6298434;28;20093;-76
2023/03/07 00:17:13;;;;;;;12.50;6.72;;;;;;;;;;6309757;28;19917;-74
2023/03/07 00:20:16;;;;;;;12.73;7.95;;;;;;;;;;6298327;28;20407;-75
2023/03/07 00:23:17;;;;;;;14.85;8.27;;;;;;;;;;6293653;28;20053;-76
2023/03/07 00:26:21;;;;;;;14.35;8.57;;;;;;;;;;6297191;28;20091;-75
2023/03/07 00:29:22;;;;;;;13.23;8.27;;;;;;;;;;6295990;28;20045;-74
2023/03/07 00:32:26;;;;;;;20.48;12.00;;;;;;;;;;6298553;28;20052;-76
2023/03/07 00:35:28;;;;;;;20.88;13.15;;;;;;;;;;6286969;28;20048;-74
2023/03/07 00:38:31;;;;;;;21.98;11.27;;;;;;;;;;6295989;28;20071;-75
2023/03/07 00:41:34;;;;;;;18.70;9.85;;;;;;;;;;6298939;28;20044;-75
2023/03/07 00:44:39;;;;;;;19.52;10.35;;;;;;;;;;6299871;28;20094;-75
2023/03/07 00:47:44;;;;;;;16.45;9.50;;;;;;;;;;6297746;28;20329;-74
2023/03/07 00:50:47;;;;;;;15.32;9.35;;;;;;;;;;6304273;28;20048;-74
2023/03/07 00:53:55;;;;;;;16.45;9.63;;;;;;;;;;6298272;28;20278;-74
2023/03/07 00:56:57;;;;;;;18.10;10.30;;;;;;;;;;6301188;28;20052;-74
2023/03/07 01:00:05;;;;;;;17.13;9.45;;;;;;;;;;6294104;28;20044;-72
2023/03/07 01:03:08;;;;;;;18.42;10.55;;;;;;;;;;6291745;28;20049;-74
2023/03/07 01:06:19;;;;;;;19.75;10.82;;;;;;;;;;6300529;28;20170;-73
2023/03/07 01:09:22;;;;;;;22.25;10.60;;;;;;;;;;6300311;28;20064;-72
2023/03/07 01:12:27;;;;;;;17.93;10.53;;;;;;;;;;6300523;28;20041;-73
2023/03/07 01:15:29;;;;;;;15.85;10.35;;;;;;;;;;6301566;28;20493;-75
2023/03/07 01:18:32;;;;;;;16.23;10.20;;;;;;;;;;6301467;28;20044;-76
2023/03/07 01:21:39;;;;;;;19.15;10.50;;;;;;;;;;6294871;28;20055;-74
2023/03/07 01:24:41;;;;;;;25.58;11.52;;;;;;;;;;6297901;28;20059;-75
2023/03/07 01:27:43;;;;;;;19.00;10.93;;;;;;;;;;6289566;28;20059;-75
2023/03/07 01:30:56;;;;;;;21.00;11.40;;;;;;;;;;6295466;28;20232;-74
2023/03/07 01:34:01;;;;;;;19.67;11.48;;;;;;;;;;6300637;28;20313;-74
2023/03/07 01:37:02;;;;;;;;;;;;;;;;;;6298497;28;20052;-75
2023/03/07 01:40:10;;;;;;;21.27;12.38;;;;;;;;;;6300134;28;19917;-73
2023/03/07 01:43:26;;;;;;;20.30;12.68;;;;;;;;;;6298614;28;20106;-74
2023/03/07 01:46:41;;;;;;;21.80;13.23;;;;;;;;;;6300225;28;20040;-74
2023/03/07 01:49:45;;;;;;;20.13;12.10;;;;;;;;;;6299874;28;20060;-75
2023/03/07 01:52:58;;;;;;;19.58;11.35;;;;;;;;;;6294744;28;20263;-75
2023/03/07 01:56:00;;;;;;;21.08;10.60;;;;;;;;;;6300155;28;20052;-75
2023/03/07 01:59:06;;;;;;;18.13;11.32;;;;;;;;;;6276664;28;20068;-75
2023/03/07 02:02:11;;;;;;;19.83;10.82;;;;;;;;;;6274323;28;20048;-74
2023/03/07 02:05:18;;;;;;;21.63;10.80;;;;;;;;;;6274352;28;20136;-75
2023/03/07 02:08:30;;;;;;;20.83;11.40;;;;;;;;;;6273772;28;20060;-75
2023/03/07 02:11:42;;;;;;;20.00;11.75;;;;;;;;;;6276637;28;20052;-72
2023/03/07 02:18:46;;;;;;;19.33;10.70;;;;;;;;;;6265120;28;20045;-75
2023/03/07 02:22:07;;;;;;;15.20;10.43;;;;;;;;;;6281571;28;20127;-75
2023/03/07 02:25:14;;;;;;;21.90;11.43;;;;;;;;;;6277677;28;20241;-75
2023/03/07 02:28:18;;;;;;;17.92;10.60;;;;;;;;;;6278729;28;20080;-74
2023/03/07 02:31:20;;;;;;;17.20;9.40;;;;;;;;;;6287789;28;20060;-75
2023/03/07 02:34:24;;;;;;;15.88;9.82;;;;;;;;;;6293727;28;21252;-75
2023/03/07 02:37:29;;;;;;;16.80;10.35;;;;;;;;;;6295834;28;20078;-75
2023/03/07 02:40:32;;;;;;;17.88;9.85;;;;;;;;;;6297608;28;20048;-74
2023/03/07 02:43:35;;;;;;;16.80;9.63;;;;;;;;;;6297802;28;20063;-74
2023/03/07 02:46:37;;;;;;;15.18;9.63;;;;;;;;;;6296942;28;20048;-74
2023/03/07 02:49:39;;;;;;;15.73;9.70;;;;;;;;;;6296846;28;20049;-75
2023/03/07 02:52:50;;;;;;;14.23;9.43;;;;;;;;;;6297872;28;20345;-74
2023/03/07 02:55:53;;;;;;;15.40;9.40;;;;;;;;;;6296324;28;20116;-74
2023/03/07 02:58:56;;;;;;;17.33;8.87;;;;;;;;;;6295897;28;20045;-75
2023/03/07 03:01:58;;;;;;;16.97;9.43;;;;;;;;;;6298636;28;20112;-75
2023/03/07 03:05:00;;;;;;;15.52;9.38;;;;;;;;;;6296781;28;20060;-73
2023/03/07 03:08:02;;;;;;;15.95;8.98;;;;;;;;;;6295431;28;20052;-74
2023/03/07 03:11:04;;;;;;;15.82;9.68;;;;;;;;;;6296708;28;20485;-74
2023/03/07 03:14:07;;;;;;;21.77;10.55;;;;;;;;;;6296742;28;20760;-74
2023/03/07 03:17:09;;;;;;;20.40;10.63;;;;;;;;;;6295889;28;20068;-74
2023/03/07 03:20:12;;;;;;;17.90;11.50;;;;;;;;;;6296633;28;20044;-72
2023/03/07 03:23:14;;;;;;;17.55;11.18;;;;;;;;;;6298385;28;20052;-75
2023/03/07 03:26:16;;;;;;;18.42;10.98;;;;;;;;;;6300188;28;20054;-74
2023/03/07 03:29:19;;;;;;;20.45;11.32;;;;;;;;;;6296330;28;20285;-74
2023/03/07 03:32:21;;;;;;;17.85;10.60;;;;;;;;;;6297251;28;20375;-74
2023/03/07 03:35:24;;;;;;;18.58;11.15;;;;;;;;;;6298699;28;20110;-74
2023/03/07 03:38:26;;;;;;;22.38;12.32;;;;;;;;;;6296710;28;20048;-74
2023/03/07 03:41:28;;;;;;;24.58;13.18;;;;;;;;;;6295718;28;20052;-74
2023/03/07 03:48:14;;;;;;;24.10;11.10;;;;;;;;;;6247099;28;20060;-75
2023/03/07 03:51:16;;;;;;;18.35;11.73;;;;;;;;;;6301870;28;20283;-75
2023/03/07 03:54:18;;;;;;;18.77;12.10;;;;;;;;;;6300464;28;20055;-74
2023/03/07 03:57:27;;;;;;;17.98;10.45;;;;;;;;;;6303470;28;20086;-73
2023/03/07 04:00:32;;;;;;;20.10;10.95;;;;;;;;;;6290731;28;20052;-74
2023/03/07 04:03:35;;;;;;;16.35;10.40;;;;;;;;;;6287683;28;20307;-75
2023/03/07 04:06:37;;;;;;;17.30;10.80;;;;;;;;;;6300277;28;20130;-74
2023/03/07 04:09:39;;;;;;;17.65;10.00;;;;;;;;;;6301405;28;20049;-72
2023/03/07 04:15:58;;;;;;;18.17;10.27;;;;;;;;;;6297475;28;20353;-75
2023/03/07 04:19:11;;;;;;;18.85;10.18;;;;;;;;;;6306578;28;20056;-75
2023/03/07 04:22:13;;;;;;;14.73;9.93;;;;;;;;;;6305223;28;20041;-75
2023/03/07 04:25:16;;;;;;;18.55;10.38;;;;;;;;;;6306043;28;20379;-75
2023/03/07 04:31:45;;;;;;;15.50;9.40;;;;;;;;;;6280921;28;20060;-75
2023/03/07 04:35:22;;;;;;;18.75;9.57;;;;;;;;;;6294257;28;20216;-75
2023/03/07 04:38:25;;;;;;;19.60;8.77;;;;;;;;;;6296647;28;20048;-74
2023/03/07 04:41:26;;;;;;;14.30;8.30;;;;;;;;;;6307388;28;20248;-74
2023/03/07 04:44:29;;;;;;;14.05;8.23;;;;;;;;;;6302426;28;20052;-74
2023/03/07 04:47:32;;;;;;;13.98;7.95;;;;;;;;;;6298712;28;20090;-74
2023/03/07 04:50:34;;;;;;;15.80;8.75;;;;;;;;;;6300211;28;20052;-74
2023/03/07 04:53:36;;;;;;;15.32;8.70;;;;;;;;;;6296118;28;20049;-74
2023/03/07 04:56:38;;;;;;;16.30;7.90;;;;;;;;;;6297843;28;20056;-74
2023/03/07 04:59:50;;;;;;;14.93;8.60;;;;;;;;;;6297852;28;20056;-75
2023/03/07 05:02:57;;;;;;;17.30;9.65;;;;;;;;;;6296111;28;20056;-75
2023/03/07 05:06:01;;;;;;;16.65;10.30;;;;;;;;;;6296724;28;20048;-74
2023/03/07 05:09:04;;;;;;;16.92;10.45;;;;;;;;;;6295897;28;20168;-73
2023/03/07 05:12:06;;;;;;;15.93;10.48;;;;;;;;;;6300621;28;20064;-75
2023/03/07 05:15:09;;;;;;;16.20;9.55;;;;;;;;;;6298917;28;20067;-74
2023/03/07 05:18:12;;;;;;;18.25;10.38;;;;;;;;;;6298324;28;20076;-75
2023/03/07 05:21:14;;;;;;;15.07;10.05;;;;;;;;;;6287047;28;20048;-74
2023/03/07 05:24:16;;;;;;;16.88;9.93;;;;;;;;;;6298249;28;20056;-74
2023/03/07 05:27:18;;;;;;;20.00;10.88;;;;;;;;;;6303042;28;20083;-74
2023/03/07 05:30:21;;;;;;;22.67;10.88;;;;;;;;;;6299408;28;20050;-73
2023/03/07 05:33:25;;;;;;;15.48;10.13;;;;;;;;;;6301556;28;20057;-73
2023/03/07 05:36:27;;;;;;;15.75;10.25;;;;;;;;;;6297879;28;20098;-75
2023/03/07 05:39:29;;;;;;;16.38;9.93;;;;;;;;;;6299170;28;20058;-74
2023/03/07 05:42:31;;;;;;;16.50;10.02;;;;;;;;;;6297635;28;20048;-74
2023/03/07 05:45:33;;;;;;;16.40;10.60;;;;;;;;;;6299084;28;20098;-75
2023/03/07 05:48:36;;;;;;;21.30;11.45;;;;;;;;;;6299050;28;20052;-73
2023/03/07 05:51:38;;;;;;;21.50;10.32;;;;;;;;;;6298387;28;20313;-75
2023/03/07 05:54:40;;;;;;;18.92;10.23;;;;;;;;;;6297423;28;20086;-76
2023/03/07 05:57:42;;;;;;;17.23;10.48;;;;;;;;;;6296476;28;20060;-75
2023/03/07 06:01:01;;;;;;;18.08;10.70;;;;;;;;;;6297043;28;20040;-73
2023/03/07 06:04:15;;;;;;;19.30;9.73;;;;;;;;;;6288780;28;20069;-75
2023/03/07 06:07:17;;;;;;;18.63;10.38;;;;;;;;;;6297278;28;20045;-80
2023/03/07 06:10:19;;;;;;;17.73;10.00;;;;;;;;;;6294851;28;20056;-77
2023/03/07 06:13:23;;;;;;;17.65;10.43;;;;;;;;;;6296762;28;20091;-77
2023/03/07 06:16:25;;;;;;;19.73;10.23;;;;;;;;;;6296334;28;20078;-78
2023/03/07 06:19:29;;;;;;;18.70;10.10;;;;;;;;;;6297650;28;20213;-77
2023/03/07 06:22:33;;;;;;;15.60;9.80;;;;;;;;;;6297009;28;20048;-77
2023/03/07 06:25:35;;;;;;;16.33;10.73;;;;;;;;;;6295423;28;21413;-74
2023/03/07 06:28:37;;;;;;;20.45;12.63;;;;;;;;;;6294779;28;20060;-77
2023/03/07 06:31:38;;;;;;;18.38;10.88;;;;;;;;;;6295669;28;20047;-76
2023/03/07 06:34:42;;;;;;;19.63;11.68;;;;;;;;;;6295406;28;20281;-76
2023/03/07 06:37:43;;;;;;;20.52;12.25;;;;;;;;;;6296078;28;20052;-77
2023/03/07 06:40:45;;;;;;;18.40;12.13;;;;;;;;;;6296695;28;20052;-77
2023/03/07 06:43:51;;;;;;;18.55;12.60;;;;;;;;;;6299106;28;20052;-77
2023/03/07 06:46:52;;;;;;;21.85;11.85;;;;;;;;;;6298773;28;20326;-76
2023/03/07 06:49:56;;;;;;;23.60;12.75;;;;;;;;;;6298110;28;20040;-74
2023/03/07 06:52:58;;;;;;;22.13;12.75;;;;;;;;;;6299110;28;20085;-77
2023/03/07 06:56:00;;;;;;;22.30;12.35;;;;;;;;;;6295105;28;20060;-76
2023/03/07 06:59:02;;;;;;;20.88;11.95;;;;;;;;;;6295007;28;20051;-77
2023/03/07 07:02:27;;;;;;;19.35;12.00;;;;;;;;;;6298865;28;20432;-78
2023/03/07 07:05:30;;;;;;;16.85;11.15;;;;;;;;;;6297359;28;20118;-78
2023/03/07 07:08:32;;;;;;;19.40;11.63;;;;;;;;;;6293739;28;20055;-77
2023/03/07 07:11:34;;;;;;;20.48;12.25;;;;;;;;;;6296230;28;20056;-77
2023/03/07 07:14:36;;;;;;;19.75;12.18;;;;;;;;;;6297132;28;20066;-75
2023/03/07 07:17:38;;;;;;;24.05;13.55;;;;;;;;;;6296187;28;20040;-75
2023/03/07 07:20:41;;;;;;;21.70;12.70;;;;;;;;;;6296069;28;20059;-78
2023/03/07 07:23:43;;;;;;;19.23;12.02;;;;;;;;;;6297323;28;20979;-78
2023/03/07 07:26:45;;;;;;;17.90;11.68;;;;;;;;;;6300687;28;20060;-77
2023/03/07 07:29:47;;;;;;;22.23;12.57;;;;;;;;;;6304031;28;20299;-77
2023/03/07 07:32:49;;;;;;;23.38;12.70;;;;;;;;;;6299326;28;20057;-73
2023/03/07 07:35:52;;;;;;;21.77;13.05;;;;;;;;;;6301473;28;20115;-77
2023/03/07 07:38:54;;;;;;;20.92;13.43;;;;;;;;;;6299001;28;20068;-77
2023/03/07 07:41:56;;;;;;;19.35;12.80;;;;;;;;;;6301405;28;20088;-75
2023/03/07 07:44:57;;;;;;;24.27;14.80;;;;;;;;;;6297864;28;20044;-77
2023/03/07 07:47:59;;;;;;;26.25;14.63;;;;;;;;;;6301144;28;20048;-77
2023/03/07 07:51:03;;;;;;;24.20;14.00;;;;;;;;;;6300991;28;20348;-78
2023/03/07 07:54:05;;;;;;;23.17;12.98;;;;;;;;;;6301183;28;20076;-78
2023/03/07 07:57:07;;;;;;;23.30;13.57;;;;;;;;;;6298577;28;20076;-77
2023/03/07 08:00:10;;;;;;;27.38;13.70;;;;;;;;;;6301744;28;20283;-78
2023/03/07 08:03:12;;;;;;;24.08;13.77;;;;;;;;;;6300501;28;20105;-75
2023/03/07 08:06:19;;;;;;;29.92;13.95;;;;;;;;;;6299343;28;20055;-77
2023/03/07 08:09:21;;;;;;;22.00;12.95;;;;;;;;;;6301761;28;20075;-77
2023/03/07 08:12:23;;;;;;;28.08;16.13;;;;;;;;;;6299373;28;20044;-78
2023/03/07 08:15:25;;;;;;;27.13;14.90;;;;;;;;;;6299724;28;20324;-78
2023/03/07 08:19:06;;;;;;;25.23;14.63;;;;;;;;;;6301015;28;20332;-78
2023/03/07 08:22:09;;;;;;;24.63;14.05;;;;;;;;;;6224585;28;20134;-74
2023/03/07 08:25:16;;;;;;;27.02;14.07;;;;;;;;;;6224096;28;20050;-77
2023/03/07 08:28:18;;;;;;;31.30;15.90;;;;;;;;;;6224840;28;20057;-77
2023/03/07 08:31:23;;;;;;;25.75;15.23;;;;;;;;;;6227321;28;20062;-78
2023/03/07 08:34:24;;;;;;;23.80;15.48;;;;;;;;;;6221841;28;20249;-76
2023/03/07 08:37:28;;;;;;;29.65;15.68;;;;;;;;;;6224179;28;20151;-77
2023/03/07 08:40:30;;;;;;;30.47;15.40;;;;;;;;;;6224016;28;20430;-77
2023/03/07 08:43:35;;;;;;;22.70;13.88;;;;;;;;;;6225735;28;20128;-75
2023/03/07 08:46:37;;;;;;;30.63;16.48;;;;;;;;;;6225813;28;20100;-78
2023/03/07 08:49:39;;;;;;;24.75;15.18;;;;;;;;;;6223875;28;20141;-77
2023/03/07 08:52:44;;;;;;;27.30;14.80;;;;;;;;;;6262701;28;20048;-75
2023/03/07 08:55:49;;;;;;;22.90;14.38;;;;;;;;;;6296414;28;20324;-78
2023/03/07 08:58:52;;;;;;;22.23;14.73;;;;;;;;;;6298433;28;20079;-78
2023/03/07 09:01:56;;;;;;;22.85;15.93;;;;;;;;;;6299901;28;20056;-77
2023/03/07 09:04:58;;;;;;;28.77;14.00;;;;;;;;;;6300018;28;20068;-77
2023/03/07 09:08:02;;;;;;;29.45;14.93;;;;;;;;;;6297829;28;20378;-74
2023/03/07 09:11:04;;;;;;;;;;;;;;;;;;6300474;28;20078;-78
2023/03/07 09:14:12;;;;;;;25.00;14.40;;;;;;;;;;6298777;28;20232;-77
2023/03/07 09:17:14;;;;;;;21.85;13.43;;;;;;;;;;6298912;28;20074;-78
2023/03/07 09:20:17;;;;;;;24.92;12.93;;;;;;;;;;6297913;28;20052;-77
2023/03/07 09:23:20;;;;;;;22.15;13.55;;;;;;;;;;6299071;28;20060;-75
2023/03/07 09:26:22;;;;;;;22.85;13.02;;;;;;;;;;6299756;28;20055;-76
2023/03/07 09:29:24;;;;;;;21.20;13.55;;;;;;;;;;6295907;28;20060;-78
2023/03/07 09:32:26;;;;;;;23.48;13.63;;;;;;;;;;6300445;28;20054;-78
2023/03/07 09:35:28;;;;;;;18.63;11.70;;;;;;;;;;6296746;28;20116;-77
2023/03/07 09:38:31;;;;;;;18.63;10.38;;;;;;;;;;6298232;28;20056;-74
2023/03/07 09:42:04;;;;;;;16.75;10.75;;;;;;;;;;6297251;28;20129;-78
2023/03/07 09:45:19;;;;;;;18.33;9.85;;;;;;;;;;6299480;28;20325;-77
2023/03/07 09:48:53;;;;;;;22.27;10.30;;;;;;;;;;6297917;28;20070;-78
2023/03/07 09:52:01;;;;;;;19.07;9.27;;;;;;;;;;6280586;28;20049;-78
2023/03/07 09:55:09;;;;;;;17.48;8.80;;;;;;;;;;6300580;28;20052;-77
2023/03/07 09:58:15;;;;;;;15.00;8.38;;;;;;;;;;6297665;28;20072;-78
2023/03/07 10:01:23;;;;;;;19.40;10.43;;;;;;;;;;6298631;28;21081;-77
2023/03/07 10:04:29;;;;;;;16.67;8.27;;;;;;;;;;6287631;28;20053;-77
2023/03/07 10:07:31;;;;;;;14.95;8.18;;;;;;;;;;6298415;28;20275;-77
2023/03/07 10:10:47;;;;;;;16.58;8.30;;;;;;;;;;6298364;28;20048;-75
2023/03/07 10:14:01;;;;;;;12.93;7.55;;;;;;;;;;6296265;28;20053;-78
2023/03/07 10:17:08;;;;;;;12.75;7.97;;;;;;;;;;6296351;28;20386;-77
2023/03/07 10:20:17;;;;;;;12.75;7.15;;;;;;;;;;6297818;28;20117;-76
2023/03/07 10:23:36;;;;;;;9.75;5.80;;;;;;;;;;6299191;28;20055;-77
2023/03/07 10:26:42;;;;;;;12.93;6.53;;;;;;;;;;6297308;28;20354;-77
2023/03/07 10:29:46;;;;;;;10.48;6.35;;;;;;;;;;6299578;28;20056;-78
2023/03/07 10:32:52;;;;;;;12.32;6.30;;;;;;;;;;6296171;28;20072;-74
2023/03/07 10:36:06;;;;;;;12.57;6.65;;;;;;;;;;6296655;28;20060;-77
2023/03/07 10:39:18;;;;;;;13.93;7.32;;;;;;;;;;6297611;28;20060;-78
2023/03/07 10:42:23;;;;;;;13.50;6.85;;;;;;;;;;6295860;28;20048;-74
2023/03/07 10:45:27;;;;;;;14.52;6.30;;;;;;;;;;6295890;28;20116;-78
2023/03/07 10:48:31;;;;;;;14.80;6.22;;;;;;;;;;6290839;28;20271;-78
2023/03/07 10:51:49;;;;;;;14.73;7.25;;;;;;;;;;6303145;28;20052;-77
2023/03/07 10:54:51;;;;;;;11.55;6.40;;;;;;;;;;6296653;28;20052;-78
2023/03/07 10:57:54;;;;;;;12.95;6.32;;;;;;;;;;6300519;28;20048;-77
2023/03/07 11:01:12;;;;;;;14.20;6.68;;;;;;;;;;6305191;28;20044;-78
2023/03/07 11:04:45;;;;;;;12.13;6.25;;;;;;;;;;6298034;28;20093;-78
2023/03/07 11:07:47;;;;;;;12.10;5.45;;;;;;;;;;6301093;28;20210;-76
2023/03/07 11:10:49;;;;;;;8.70;4.20;;;;;;;;;;6300860;28;20064;-79
2023/03/07 11:14:07;;;;;;;16.50;5.43;;;;;;;;;;6301927;28;20158;-78
2023/03/07 11:17:23;;;;;;;17.13;7.43;;;;;;;;;;6301135;28;20048;-74
2023/03/07 11:20:35;;;;;;;13.85;5.82;;;;;;;;;;6301462;28;20341;-78
2023/03/07 11:23:37;;;;;;;10.73;5.75;;;;;;;;;;6300502;28;20060;-77
2023/03/07 11:26:40;;;;;;;12.98;6.28;;;;;;;;;;6300921;28;20111;-74
2023/03/07 11:29:43;;;;;;;15.50;5.35;;;;;;;;;;6292063;28;20100;-78
2023/03/07 11:32:57;;;;;;;11.32;5.65;;;;;;;;;;6302026;28;20055;-77
2023/03/07 11:36:01;;;;;;;13.43;6.00;;;;;;;;;;6300078;28;20059;-79
2023/03/07 11:39:10;;;;;;;13.45;6.25;;;;;;;;;;6302511;28;20048;-78
2023/03/07 11:42:16;;;;;;;12.25;5.07;;;;;;;;;;6298728;28;20260;-78
2023/03/07 11:45:29;;;;;;;14.88;5.40;;;;;;;;;;6299015;28;20165;-78
2023/03/07 11:48:42;;;;;;;8.40;4.13;;;;;;;;;;6301165;28;20053;-75
2023/03/07 11:51:53;;;;;;;20.58;5.50;;;;;;;;;;6298967;28;20052;-78
2023/03/07 11:55:04;;;;;;;13.73;5.70;;;;;;;;;;6301881;28;20115;-78
2023/03/07 11:58:21;;;;;;;13.40;6.28;;;;;;;;;;6300945;28;20044;-78
2023/03/07 12:01:28;;;;;;;11.60;4.88;;;;;;;;;;6301657;28;20241;-78
2023/03/07 12:05:01;;;;;;;10.88;5.13;;;;;;;;;;6300062;28;20056;-77
2023/03/07 12:08:40;;;;;;;12.77;5.60;;;;;;;;;;6301614;28;20060;-79
2023/03/07 12:11:53;;;;;;;13.98;5.00;;;;;;;;;;6291982;28;20067;-79
2023/03/07 12:15:02;;;;;;;10.23;4.80;;;;;;;;;;6299738;28;20060;-78
2023/03/07 12:18:20;;;;;;;15.32;5.38;;;;;;;;;;6300191;28;20048;-78
2023/03/07 12:21:49;;;;;;;16.67;5.82;;;;;;;;;;6300390;28;20056;-78
2023/03/07 12:25:02;;;;;;;11.30;5.93;;;;;;;;;;6297289;28;20064;-78
2023/03/07 12:28:14;;;;;;;14.35;6.72;;;;;;;;;;6301941;28;20040;-78
2023/03/07 12:31:27;;;;;;;16.20;6.28;;;;;;;;;;6274931;28;20052;-78
2023/03/07 12:34:35;;;;;;;14.40;7.07;;;;;;;;;;6273061;28;20060;-78
2023/03/07 12:37:43;;;;;;;13.40;6.75;;;;;;;;;;6272423;28;20120;-76
2023/03/07 12:40:48;;;;;;;11.43;6.53;;;;;;;;;;6274171;28;20056;-78
2023/03/07 12:43:53;;;;;;;13.55;6.75;;;;;;;;;;6274018;28;20095;-77
2023/03/07 12:47:01;;;;;;;15.52;6.70;;;;;;;;;;6274631;28;20159;-74
2023/03/07 12:50:11;;;;;;;13.18;7.05;;;;;;;;;;6273640;28;20349;-78
2023/03/07 12:53:21;;;;;;;14.25;6.60;;;;;;;;;;6274777;28;20060;-75
2023/03/07 12:56:28;;;;;;;12.98;5.65;;;;;;;;;;6282158;28;20333;-77
2023/03/07 12:59:34;;;;;;;13.32;6.60;;;;;;;;;;6298676;28;20084;-78
2023/03/07 13:02:40;;;;;;;16.60;7.03;;;;;;;;;;6298690;28;20090;-78
2023/03/07 13:05:43;;;;;;;17.65;7.18;;;;;;;;;;6299556;28;20064;-78
2023/03/07 13:08:47;;;;;;;13.35;7.43;;;;;;;;;;6299055;28;20287;-74
2023/03/07 13:12:10;;;;;;;13.05;7.15;;;;;;;;;;6289567;28;20068;-79
2023/03/07 13:15:47;;;;;;;17.20;7.85;;;;;;;;;;6311479;28;20347;-75
2023/03/07 13:18:48;;;;;;;18.33;7.95;;;;;;;;;;6299041;28;20044;-79
2023/03/07 13:21:51;;;;;;;12.73;6.82;;;;;;;;;;6298066;28;20233;-78
2023/03/07 13:24:54;;;;;;;19.50;8.30;;;;;;;;;;6299082;28;20051;-77
2023/03/07 13:27:57;;;;;;;18.95;7.80;;;;;;;;;;6299280;28;20434;-77
2023/03/07 13:31:29;;;;;;;12.10;7.05;;;;;;;;;;6300359;28;20142;-74
2023/03/07 13:34:48;;;;;;;16.00;8.25;;;;;;;;;;6295864;28;20083;-80
2023/03/07 13:37:56;;;;;;;14.18;8.30;;;;;;;;;;6298674;28;20111;-78
2023/03/07 13:40:59;;;;;;;25.23;11.77;;;;;;;;;;6298766;28;20097;-79
2023/03/07 13:44:02;;;;;;;18.30;10.15;;;;;;;;;;6296877;28;20064;-80
2023/03/07 13:47:21;;;;;;;13.98;7.55;;;;;;;;;;6298038;28;20058;-78
2023/03/07 13:50:38;;;;;;;14.45;7.28;;;;;;;;;;6298217;28;20052;-78
2023/03/07 13:53:45;;;;;;;16.52;8.48;;;;;;;;;;6298933;28;20337;-76
2023/03/07 13:56:46;;;;;;;16.00;8.23;;;;;;;;;;6299197;28;20208;-79
2023/03/07 13:59:49;;;;;;;15.43;8.25;;;;;;;;;;6298649;28;20111;-79
2023/03/07 14:02:53;;;;;;;14.02;7.35;;;;;;;;;;6299924;28;20052;-78
2023/03/07 14:05:57;;;;;;;12.35;7.38;;;;;;;;;;6298888;28;20056;-79
2023/03/07 14:09:00;;;;;;;14.48;7.47;;;;;;;;;;6296811;28;20063;-79
2023/03/07 14:12:08;;;;;;;12.05;7.38;;;;;;;;;;6298285;28;20102;-78
2023/03/07 14:15:23;;;;;;;12.77;8.00;;;;;;;;;;6299478;28;20061;-79
2023/03/07 14:18:40;;;;;;;12.23;7.25;;;;;;;;;;6299352;28;20355;-79
2023/03/07 14:21:50;;;;;;;14.93;8.45;;;;;;;;;;6298327;28;20127;-79
2023/03/07 14:25:06;;;;;;;13.70;7.68;;;;;;;;;;6299579;28;20052;-79
2023/03/07 14:28:19;;;;;;;13.02;7.85;;;;;;;;;;6298299;28;20197;-79
2023/03/07 14:31:25;;;;;;;9.30;6.00;;;;;;;;;;6297235;28;20056;-75
2023/03/07 14:34:29;;;;;;;12.65;7.65;;;;;;;;;;6296706;28;20048;-78
2023/03/07 14:37:31;;;;;;;13.60;7.45;;;;;;;;;;6296132;28;20059;-77
2023/03/07 14:40:42;;;;;;;18.25;8.63;;;;;;;;;;6298193;28;20036;-79
2023/03/07 14:43:53;;;;;;;19.45;8.95;;;;;;;;;;6297452;28;20103;-76
2023/03/07 14:47:02;;;;;;;16.77;10.43;;;;;;;;;;6297549;28;20345;-75
2023/03/07 14:50:25;;;;;;;17.73;9.65;;;;;;;;;;6296005;28;20044;-76
2023/03/07 14:53:28;;;;;;;14.55;7.05;;;;;;;;;;6297768;28;20255;-75
2023/03/07 14:56:32;;;;;;;17.63;8.43;;;;;;;;;;6297506;28;20052;-75
2023/03/07 14:59:34;;;;;;;18.60;8.55;;;;;;;;;;6295255;28;20098;-76
2023/03/07 15:02:36;;;;;;;16.65;7.22;;;;;;;;;;6296268;28;20044;-76
2023/03/07 15:05:47;;;;;;;16.45;7.40;;;;;;;;;;6296048;28;20086;-76
2023/03/07 15:08:56;;;;;;;14.25;7.78;;;;;;;;;;6296304;28;20053;-76
2023/03/07 15:12:03;;;;;;;14.60;7.55;;;;;;;;;;6299017;28;20107;-76
2023/03/07 15:15:06;;;;;;;11.90;7.03;;;;;;;;;;6298415;28;20287;-76
2023/03/07 15:18:13;;;;;;;15.77;7.53;;;;;;;;;;6295094;28;20059;-76
2023/03/07 15:21:17;;;;;;;17.30;7.32;;;;;;;;;;6292370;28;20048;-77
2023/03/07 15:24:23;;;;;;;11.68;6.30;;;;;;;;;;6293854;28;20245;-76
2023/03/07 15:27:29;;;;;;;18.67;8.05;;;;;;;;;;6291479;28;20094;-77
2023/03/07 15:30:33;;;;;;;14.70;7.85;;;;;;;;;;6300646;28;21043;-77
2023/03/07 15:33:35;;;;;;;13.95;8.15;;;;;;;;;;6300735;28;20060;-77
2023/03/07 15:36:38;;;;;;;14.02;7.97;;;;;;;;;;6301539;28;20063;-75
2023/03/07 15:39:40;;;;;;;16.65;7.50;;;;;;;;;;6300940;28;20057;-77
2023/03/07 15:42:51;;;;;;;14.65;8.07;;;;;;;;;;6301588;28;20079;-77
2023/03/07 15:46:04;;;;;;;14.02;7.85;;;;;;;;;;6301735;28;20057;-77
2023/03/07 15:49:06;;;;;;;15.05;8.18;;;;;;;;;;6303653;28;20059;-77
2023/03/07 15:52:20;;;;;;;19.50;8.27;;;;;;;;;;6303267;28;20098;-76
2023/03/07 15:55:25;;;;;;;15.35;7.38;;;;;;;;;;6302311;28;20217;-76
2023/03/07 15:58:28;;;;;;;16.73;8.00;;;;;;;;;;6300442;28;20059;-76
2023/03/07 16:01:30;;;;;;;12.55;6.80;;;;;;;;;;6296514;28;20076;-77
2023/03/07 16:04:37;;;;;;;16.02;7.53;;;;;;;;;;6298327;28;20043;-77
2023/03/07 16:07:39;;;;;;;16.65;7.78;;;;;;;;;;6299855;28;20064;-76
2023/03/07 16:10:50;;;;;;;14.75;7.07;;;;;;;;;;6298471;28;20049;-76
2023/03/07 16:13:54;;;;;;;17.83;7.97;;;;;;;;;;6301084;28;20313;-77
2023/03/07 16:17:04;;;;;;;12.07;7.60;;;;;;;;;;6301077;28;20052;-76
2023/03/07 16:20:14;;;;;;;18.13;7.78;;;;;;;;;;6300601;28;20048;-76
2023/03/07 16:23:15;;;;;;;19.70;9.30;;;;;;;;;;6301054;28;20126;-76
2023/03/07 16:26:20;;;;;;;14.75;8.13;;;;;;;;;;6299640;28;20052;-77
2023/03/07 16:29:23;;;;;;;19.33;7.88;;;;;;;;;;6298758;28;20119;-76
2023/03/07 16:32:25;;;;;;;14.02;7.72;;;;;;;;;;6301392;28;20052;-77
2023/03/07 16:35:28;;;;;;;18.10;8.02;;;;;;;;;;6300219;28;20120;-77
2023/03/07 16:38:30;;;;;;;19.20;8.60;;;;;;;;;;6300222;28;20060;-77
2023/03/07 16:41:31;;;;;;;16.95;9.88;;;;;;;;;;6297783;28;20336;-76
2023/03/07 16:44:43;;;;;;;20.40;9.48;;;;;;;;;;6299286;28;20055;-76
2023/03/07 16:47:45;;;;;;;14.75;8.60;;;;;;;;;;6294096;28;20056;-76
2023/03/07 16:50:47;;;;;;;15.45;8.20;;;;;;;;;;6297590;28;20068;-77
2023/03/07 16:53:53;;;;;;;14.27;7.22;;;;;;;;;;6296395;28;20102;-76
2023/03/07 16:56:57;;;;;;;16.40;8.63;;;;;;;;;;6300687;28;20048;-77
2023/03/07 17:00:00;;;;;;;;;;;;;;;;;;6297061;28;20202;-76
2023/03/07 17:03:02;;;;;;;14.65;7.93;;;;;;;;;;6299224;28;20033;-77
2023/03/07 17:06:04;;;;;;;17.27;8.98;;;;;;;;;;6298664;28;20151;-76
2023/03/07 17:09:08;;;;;;;13.65;6.38;;;;;;;;;;6297499;28;20057;-77
2023/03/07 17:12:09;;;;;;;;;;;;;;;;;;6299268;28;20049;-77
2023/03/07 17:15:15;;;;;;;11.50;5.55;;;;;;;;;;6301628;28;20089;-79
2023/03/07 17:18:17;;;;;;;9.65;4.55;;;;;;;;;;6304687;28;20048;-79
2023/03/07 17:21:22;;;;;;;10.05;3.75;;;;;;;;;;6302591;28;20332;-82
2023/03/07 17:24:24;;;;;;;10.82;3.33;;;;;;;;;;6300473;28;20099;-81
2023/03/07 17:27:25;;;;;;;7.50;3.95;;;;;;;;;;6302180;28;20056;-78
2023/03/07 17:30:33;;;;;;;13.55;3.90;;;;;;;;;;6300695;28;20132;-78
2023/03/07 17:33:35;;;;;;;7.00;3.38;;;;;;;;;;6291407;28;20064;-77
2023/03/07 17:36:36;;;;;;;6.88;3.00;;;;;;;;;;6299562;28;20036;-77
2023/03/07 17:39:38;;;;;;;8.77;3.42;;;;;;;;;;6297396;28;20146;-77
2023/03/07 17:42:51;;;;;;;7.85;3.40;;;;;;;;;;6298381;28;20049;-79
2023/03/07 17:45:54;;;;;;;9.27;3.22;;;;;;;;;;6287952;28;20057;-77
2023/03/07 17:48:59;;;;;;;11.13;3.40;;;;;;;;;;6310207;28;20116;-78
2023/03/07 17:52:01;;;;;;;8.20;3.53;;;;;;;;;;6299030;28;20076;-79
2023/03/07 17:55:04;;;;;;;10.52;3.95;;;;;;;;;;6299811;28;20057;-79
2023/03/07 17:58:07;;;;;;;10.75;4.00;;;;;;;;;;6297538;28;20277;-77
2023/03/07 18:01:13;;;;;;;10.45;3.47;;;;;;;;;;6296933;28;20048;-79
2023/03/07 18:04:15;;;;;;;7.55;3.30;;;;;;;;;;6295643;28;20052;-77
2023/03/07 18:07:18;;;;;;;6.82;3.13;;;;;;;;;;6297652;28;20040;-77
2023/03/07 18:10:21;;;;;;;8.25;3.03;;;;;;;;;;6301607;28;20049;-75
2023/03/07 18:13:23;;;;;;;15.30;3.42;;;;;;;;;;6293871;28;20396;-73
2023/03/07 18:16:58;;;;;;;7.53;2.97;;;;;;;;;;6286729;28;20044;-76
2023/03/07 18:20:02;;;;;;;9.02;3.08;;;;;;;;;;6285107;28;20050;-74
2023/03/07 18:23:28;;;;;;;6.78;3.10;;;;;;;;;;6298491;28;20112;-77
2023/03/07 18:26:30;;;;;;;10.88;3.58;;;;;;;;;;6287088;28;20056;-77
2023/03/07 18:29:32;;;;;;;8.98;3.40;;;;;;;;;;6295396;28;20063;-79
2023/03/07 18:32:33;;;;;;;10.10;3.53;;;;;;;;;;6298458;28;20355;-77